sensor_id;sensor_type;location;lat;lon;timestamp;P1;durP1;ratioP1;P2;durP2;ratioP2
26253;SDS011;53339;51.378;0.094;2022-07-23T00:00:30;6.93;;;1.90;;
26253;SDS011;53339;51.378;0.094;2022-07-23T00:03:04;8.32;;;2.55;;
26253;SDS011;53339;51.378;0.094;2022-07-23T00:05:32;7.93;;;2.97;;
26253;SDS011;53339;51.378;0.094;2022-07-23T00:08:01;8.30;;;2.25;;
26253;SDS011;53339;51.378;0.094;2022-07-23T00:10:28;5.57;;;2.75;;
26253;SDS011;53339;51.378;0.094;2022-07-23T00:12:56;5.07;;;2.45;;
26253;SDS011;53339;51.378;0.094;2022-07-23T00:15:23;6.10;;;2.40;;
26253;SDS011;53339;51.378;0.094;2022-07-23T00:17:51;6.55;;;3.00;;
26253;SDS011;53339;51.378;0.094;2022-07-23T00:20:18;7.13;;;2.80;;
26253;SDS011;53339;51.378;0.094;2022-07-23T00:22:51;7.00;;;2.13;;
26253;SDS011;53339;51.378;0.094;2022-07-23T00:25:20;7.22;;;3.17;;
26253;SDS011;53339;51.378;0.094;2022-07-23T00:27:54;6.88;;;2.70;;
26253;SDS011;53339;51.378;0.094;2022-07-23T00:30:22;6.40;;;2.55;;
26253;SDS011;53339;51.378;0.094;2022-07-23T00:32:54;7.55;;;3.03;;
26253;SDS011;53339;51.378;0.094;2022-07-23T00:35:25;7.65;;;2.72;;
26253;SDS011;53339;51.378;0.094;2022-07-23T00:37:54;9.77;;;3.17;;
26253;SDS011;53339;51.378;0.094;2022-07-23T00:40:23;7.65;;;3.03;;
26253;SDS011;53339;51.378;0.094;2022-07-23T00:42:51;8.30;;;2.60;;
26253;SDS011;53339;51.378;0.094;2022-07-23T00:45:19;8.52;;;2.90;;
26253;SDS011;53339;51.378;0.094;2022-07-23T00:47:48;7.63;;;2.78;;
26253;SDS011;53339;51.378;0.094;2022-07-23T00:50:16;7.30;;;2.97;;
26253;SDS011;53339;51.378;0.094;2022-07-23T00:52:44;8.00;;;3.00;;
26253;SDS011;53339;51.378;0.094;2022-07-23T00:55:12;6.63;;;2.13;;
26253;SDS011;53339;51.378;0.094;2022-07-23T00:57:41;7.15;;;2.35;;
26253;SDS011;53339;51.378;0.094;2022-07-23T01:00:11;6.30;;;2.05;;
26253;SDS011;53339;51.378;0.094;2022-07-23T01:02:40;8.63;;;2.58;;
26253;SDS011;53339;51.378;0.094;2022-07-23T01:05:08;7.15;;;2.55;;
26253;SDS011;53339;51.378;0.094;2022-07-23T01:07:37;8.43;;;2.58;;
26253;SDS011;53339;51.378;0.094;2022-07-23T01:10:05;8.25;;;2.47;;
26253;SDS011;53339;51.378;0.094;2022-07-23T01:12:53;8.98;;;2.35;;
26253;SDS011;53339;51.378;0.094;2022-07-23T01:15:21;8.32;;;2.70;;
26253;SDS011;53339;51.378;0.094;2022-07-23T01:17:49;7.40;;;2.45;;
26253;SDS011;53339;51.378;0.094;2022-07-23T01:20:18;8.07;;;2.15;;
26253;SDS011;53339;51.378;0.094;2022-07-23T01:22:45;6.40;;;2.25;;
26253;SDS011;53339;51.378;0.094;2022-07-23T01:25:13;7.13;;;2.28;;
26253;SDS011;53339;51.378;0.094;2022-07-23T01:27:51;6.00;;;2.47;;
26253;SDS011;53339;51.378;0.094;2022-07-23T01:32:47;6.72;;;2.35;;
26253;SDS011;53339;51.378;0.094;2022-07-23T01:35:15;4.78;;;2.10;;
26253;SDS011;53339;51.378;0.094;2022-07-23T01:37:43;7.43;;;2.55;;
26253;SDS011;53339;51.378;0.094;2022-07-23T01:40:12;5.03;;;1.90;;
26253;SDS011;53339;51.378;0.094;2022-07-23T01:42:40;5.40;;;2.08;;
26253;SDS011;53339;51.378;0.094;2022-07-23T01:45:09;5.55;;;2.25;;
26253;SDS011;53339;51.378;0.094;2022-07-23T01:47:40;6.25;;;2.35;;
26253;SDS011;53339;51.378;0.094;2022-07-23T01:50:08;7.22;;;2.00;;
26253;SDS011;53339;51.378;0.094;2022-07-23T01:52:45;7.95;;;2.30;;
26253;SDS011;53339;51.378;0.094;2022-07-23T01:55:13;5.55;;;1.90;;
26253;SDS011;53339;51.378;0.094;2022-07-23T01:57:45;8.77;;;1.98;;
26253;SDS011;53339;51.378;0.094;2022-07-23T02:00:14;4.63;;;1.52;;
26253;SDS011;53339;51.378;0.094;2022-07-23T02:02:46;6.75;;;2.42;;
26253;SDS011;53339;51.378;0.094;2022-07-23T02:05:14;5.70;;;2.00;;
26253;SDS011;53339;51.378;0.094;2022-07-23T02:07:44;6.57;;;2.22;;
26253;SDS011;53339;51.378;0.094;2022-07-23T02:10:12;5.60;;;2.72;;
26253;SDS011;53339;51.378;0.094;2022-07-23T02:12:40;5.32;;;2.15;;
26253;SDS011;53339;51.378;0.094;2022-07-23T02:15:09;5.60;;;2.03;;
26253;SDS011;53339;51.378;0.094;2022-07-23T02:17:39;5.47;;;1.70;;
26253;SDS011;53339;51.378;0.094;2022-07-23T02:20:08;5.13;;;2.20;;
26253;SDS011;53339;51.378;0.094;2022-07-23T02:25:05;7.28;;;2.00;;
26253;SDS011;53339;51.378;0.094;2022-07-23T02:27:33;6.00;;;2.28;;
26253;SDS011;53339;51.378;0.094;2022-07-23T02:30:04;6.75;;;1.95;;
26253;SDS011;53339;51.378;0.094;2022-07-23T02:32:33;4.57;;;2.15;;
26253;SDS011;53339;51.378;0.094;2022-07-23T02:35:02;5.60;;;2.22;;
26253;SDS011;53339;51.378;0.094;2022-07-23T02:39:59;5.88;;;2.05;;
26253;SDS011;53339;51.378;0.094;2022-07-23T02:42:27;6.30;;;2.78;;
26253;SDS011;53339;51.378;0.094;2022-07-23T02:44:54;6.18;;;1.95;;
26253;SDS011;53339;51.378;0.094;2022-07-23T02:47:22;6.20;;;1.80;;
26253;SDS011;53339;51.378;0.094;2022-07-23T02:49:49;8.60;;;1.98;;
26253;SDS011;53339;51.378;0.094;2022-07-23T02:52:17;5.82;;;1.83;;
26253;SDS011;53339;51.378;0.094;2022-07-23T02:54:46;3.88;;;1.88;;
26253;SDS011;53339;51.378;0.094;2022-07-23T02:57:16;5.28;;;2.20;;
26253;SDS011;53339;51.378;0.094;2022-07-23T02:59:43;8.27;;;2.67;;
26253;SDS011;53339;51.378;0.094;2022-07-23T03:02:11;6.45;;;1.73;;
26253;SDS011;53339;51.378;0.094;2022-07-23T03:04:39;6.35;;;2.25;;
26253;SDS011;53339;51.378;0.094;2022-07-23T03:07:11;4.40;;;1.95;;
26253;SDS011;53339;51.378;0.094;2022-07-23T03:09:38;7.00;;;1.70;;
26253;SDS011;53339;51.378;0.094;2022-07-23T03:12:08;3.97;;;2.08;;
26253;SDS011;53339;51.378;0.094;2022-07-23T03:14:40;5.00;;;2.10;;
26253;SDS011;53339;51.378;0.094;2022-07-23T03:17:08;6.22;;;1.88;;
26253;SDS011;53339;51.378;0.094;2022-07-23T03:19:36;4.80;;;2.42;;
26253;SDS011;53339;51.378;0.094;2022-07-23T03:22:07;4.95;;;2.13;;
26253;SDS011;53339;51.378;0.094;2022-07-23T03:24:34;8.40;;;2.47;;
26253;SDS011;53339;51.378;0.094;2022-07-23T03:27:24;7.78;;;1.90;;
26253;SDS011;53339;51.378;0.094;2022-07-23T03:29:55;8.80;;;1.80;;
26253;SDS011;53339;51.378;0.094;2022-07-23T03:32:24;9.38;;;2.00;;
26253;SDS011;53339;51.378;0.094;2022-07-23T03:34:52;4.65;;;2.42;;
26253;SDS011;53339;51.378;0.094;2022-07-23T03:37:20;6.78;;;1.90;;
26253;SDS011;53339;51.378;0.094;2022-07-23T03:39:48;5.00;;;2.70;;
26253;SDS011;53339;51.378;0.094;2022-07-23T03:42:15;7.28;;;2.78;;
26253;SDS011;53339;51.378;0.094;2022-07-23T03:44:45;5.15;;;2.53;;
26253;SDS011;53339;51.378;0.094;2022-07-23T03:47:13;8.52;;;2.60;;
26253;SDS011;53339;51.378;0.094;2022-07-23T03:49:41;5.90;;;2.80;;
26253;SDS011;53339;51.378;0.094;2022-07-23T03:52:08;5.00;;;3.60;;
26253;SDS011;53339;51.378;0.094;2022-07-23T03:54:36;5.40;;;2.40;;
26253;SDS011;53339;51.378;0.094;2022-07-23T03:57:03;6.18;;;2.15;;
26253;SDS011;53339;51.378;0.094;2022-07-23T03:59:31;5.68;;;2.13;;
26253;SDS011;53339;51.378;0.094;2022-07-23T04:01:58;11.15;;;3.13;;
26253;SDS011;53339;51.378;0.094;2022-07-23T04:04:26;6.32;;;2.83;;
26253;SDS011;53339;51.378;0.094;2022-07-23T04:06:55;6.35;;;2.42;;
26253;SDS011;53339;51.378;0.094;2022-07-23T04:09:22;7.78;;;2.40;;
26253;SDS011;53339;51.378;0.094;2022-07-23T04:11:50;11.88;;;2.65;;
26253;SDS011;53339;51.378;0.094;2022-07-23T04:14:19;7.85;;;2.35;;
26253;SDS011;53339;51.378;0.094;2022-07-23T04:16:46;7.63;;;2.28;;
26253;SDS011;53339;51.378;0.094;2022-07-23T04:19:14;6.50;;;2.38;;
26253;SDS011;53339;51.378;0.094;2022-07-23T04:22:08;6.80;;;2.10;;
26253;SDS011;53339;51.378;0.094;2022-07-23T04:24:37;7.40;;;2.10;;
26253;SDS011;53339;51.378;0.094;2022-07-23T04:27:05;6.32;;;2.60;;
26253;SDS011;53339;51.378;0.094;2022-07-23T04:29:33;7.03;;;2.78;;
26253;SDS011;53339;51.378;0.094;2022-07-23T04:32:00;7.97;;;2.55;;
26253;SDS011;53339;51.378;0.094;2022-07-23T04:34:28;5.68;;;2.67;;
26253;SDS011;53339;51.378;0.094;2022-07-23T04:36:58;7.20;;;2.45;;
26253;SDS011;53339;51.378;0.094;2022-07-23T04:39:28;7.65;;;2.33;;
26253;SDS011;53339;51.378;0.094;2022-07-23T04:41:55;7.70;;;2.53;;
26253;SDS011;53339;51.378;0.094;2022-07-23T04:44:23;11.38;;;3.35;;
26253;SDS011;53339;51.378;0.094;2022-07-23T04:46:51;6.68;;;2.97;;
26253;SDS011;53339;51.378;0.094;2022-07-23T04:49:19;4.45;;;2.10;;
26253;SDS011;53339;51.378;0.094;2022-07-23T04:51:46;6.88;;;2.25;;
26253;SDS011;53339;51.378;0.094;2022-07-23T04:54:14;6.72;;;2.20;;
26253;SDS011;53339;51.378;0.094;2022-07-23T04:56:43;6.32;;;2.15;;
26253;SDS011;53339;51.378;0.094;2022-07-23T04:59:11;7.47;;;2.45;;
26253;SDS011;53339;51.378;0.094;2022-07-23T05:01:40;6.07;;;2.72;;
26253;SDS011;53339;51.378;0.094;2022-07-23T05:04:09;7.35;;;2.42;;
26253;SDS011;53339;51.378;0.094;2022-07-23T05:06:39;5.82;;;2.55;;
26253;SDS011;53339;51.378;0.094;2022-07-23T05:09:06;5.72;;;2.08;;
26253;SDS011;53339;51.378;0.094;2022-07-23T05:11:34;6.78;;;3.00;;
26253;SDS011;53339;51.378;0.094;2022-07-23T05:14:01;7.25;;;2.95;;
26253;SDS011;53339;51.378;0.094;2022-07-23T05:16:29;9.05;;;2.28;;
26253;SDS011;53339;51.378;0.094;2022-07-23T05:19:01;6.30;;;2.58;;
26253;SDS011;53339;51.378;0.094;2022-07-23T05:21:31;9.15;;;2.92;;
26253;SDS011;53339;51.378;0.094;2022-07-23T05:23:59;7.32;;;2.35;;
26253;SDS011;53339;51.378;0.094;2022-07-23T05:26:27;6.22;;;2.90;;
26253;SDS011;53339;51.378;0.094;2022-07-23T05:28:55;8.13;;;2.83;;
26253;SDS011;53339;51.378;0.094;2022-07-23T05:31:22;8.00;;;3.13;;
26253;SDS011;53339;51.378;0.094;2022-07-23T05:33:51;5.50;;;2.83;;
26253;SDS011;53339;51.378;0.094;2022-07-23T05:36:18;6.60;;;2.95;;
26253;SDS011;53339;51.378;0.094;2022-07-23T05:38:52;8.65;;;3.38;;
26253;SDS011;53339;51.378;0.094;2022-07-23T05:41:22;6.75;;;2.55;;
26253;SDS011;53339;51.378;0.094;2022-07-23T05:43:49;6.55;;;2.88;;
26253;SDS011;53339;51.378;0.094;2022-07-23T05:46:18;7.47;;;2.40;;
26253;SDS011;53339;51.378;0.094;2022-07-23T05:48:50;6.47;;;2.30;;
26253;SDS011;53339;51.378;0.094;2022-07-23T05:51:37;8.98;;;2.67;;
26253;SDS011;53339;51.378;0.094;2022-07-23T05:54:05;6.57;;;2.75;;
26253;SDS011;53339;51.378;0.094;2022-07-23T05:56:37;8.13;;;3.08;;
26253;SDS011;53339;51.378;0.094;2022-07-23T05:59:04;7.80;;;2.80;;
26253;SDS011;53339;51.378;0.094;2022-07-23T06:01:33;6.18;;;2.95;;
26253;SDS011;53339;51.378;0.094;2022-07-23T06:04:07;5.97;;;2.80;;
26253;SDS011;53339;51.378;0.094;2022-07-23T06:06:38;7.85;;;3.30;;
26253;SDS011;53339;51.378;0.094;2022-07-23T06:09:07;6.55;;;2.65;;
26253;SDS011;53339;51.378;0.094;2022-07-23T06:11:35;7.60;;;3.88;;
26253;SDS011;53339;51.378;0.094;2022-07-23T06:14:03;7.35;;;3.25;;
26253;SDS011;53339;51.378;0.094;2022-07-23T06:16:51;10.45;;;3.92;;
26253;SDS011;53339;51.378;0.094;2022-07-23T06:19:19;7.40;;;3.38;;
26253;SDS011;53339;51.378;0.094;2022-07-23T06:21:46;9.65;;;3.25;;
26253;SDS011;53339;51.378;0.094;2022-07-23T06:26:43;5.07;;;2.47;;
26253;SDS011;53339;51.378;0.094;2022-07-23T06:29:11;8.30;;;2.85;;
26253;SDS011;53339;51.378;0.094;2022-07-23T06:31:39;6.63;;;2.88;;
26253;SDS011;53339;51.378;0.094;2022-07-23T06:34:07;7.72;;;2.90;;
26253;SDS011;53339;51.378;0.094;2022-07-23T06:36:35;5.25;;;2.17;;
26253;SDS011;53339;51.378;0.094;2022-07-23T06:39:05;5.85;;;2.95;;
26253;SDS011;53339;51.378;0.094;2022-07-23T06:41:33;6.50;;;2.75;;
26253;SDS011;53339;51.378;0.094;2022-07-23T06:44:00;7.18;;;2.20;;
26253;SDS011;53339;51.378;0.094;2022-07-23T06:46:30;7.05;;;2.92;;
26253;SDS011;53339;51.378;0.094;2022-07-23T06:49:00;7.25;;;3.17;;
26253;SDS011;53339;51.378;0.094;2022-07-23T06:51:29;7.50;;;3.10;;
26253;SDS011;53339;51.378;0.094;2022-07-23T06:53:57;11.68;;;2.30;;
26253;SDS011;53339;51.378;0.094;2022-07-23T06:56:25;7.55;;;2.85;;
26253;SDS011;53339;51.378;0.094;2022-07-23T06:58:54;9.75;;;2.60;;
26253;SDS011;53339;51.378;0.094;2022-07-23T07:01:22;6.55;;;2.58;;
26253;SDS011;53339;51.378;0.094;2022-07-23T07:03:50;5.53;;;2.67;;
26253;SDS011;53339;51.378;0.094;2022-07-23T07:06:18;7.00;;;2.17;;
26253;SDS011;53339;51.378;0.094;2022-07-23T07:08:46;5.38;;;2.85;;
26253;SDS011;53339;51.378;0.094;2022-07-23T07:11:14;4.30;;;2.15;;
26253;SDS011;53339;51.378;0.094;2022-07-23T07:13:41;6.65;;;3.08;;
26253;SDS011;53339;51.378;0.094;2022-07-23T07:16:09;7.80;;;2.83;;
26253;SDS011;53339;51.378;0.094;2022-07-23T07:18:36;9.10;;;2.78;;
26253;SDS011;53339;51.378;0.094;2022-07-23T07:21:04;7.72;;;3.00;;
26253;SDS011;53339;51.378;0.094;2022-07-23T07:23:32;9.75;;;3.08;;
26253;SDS011;53339;51.378;0.094;2022-07-23T07:25:59;7.78;;;3.05;;
26253;SDS011;53339;51.378;0.094;2022-07-23T07:28:27;6.97;;;2.20;;
26253;SDS011;53339;51.378;0.094;2022-07-23T07:30:54;7.30;;;2.83;;
26253;SDS011;53339;51.378;0.094;2022-07-23T07:33:22;7.65;;;2.83;;
26253;SDS011;53339;51.378;0.094;2022-07-23T07:35:50;6.97;;;2.50;;
26253;SDS011;53339;51.378;0.094;2022-07-23T07:38:17;6.72;;;3.60;;
26253;SDS011;53339;51.378;0.094;2022-07-23T07:40:45;10.23;;;3.10;;
26253;SDS011;53339;51.378;0.094;2022-07-23T07:43:13;9.90;;;2.83;;
26253;SDS011;53339;51.378;0.094;2022-07-23T07:45:40;7.93;;;3.00;;
26253;SDS011;53339;51.378;0.094;2022-07-23T07:48:08;8.95;;;3.03;;
26253;SDS011;53339;51.378;0.094;2022-07-23T07:50:36;5.72;;;2.55;;
26253;SDS011;53339;51.378;0.094;2022-07-23T07:53:03;7.10;;;2.42;;
26253;SDS011;53339;51.378;0.094;2022-07-23T07:55:31;5.57;;;2.13;;
26253;SDS011;53339;51.378;0.094;2022-07-23T07:57:59;7.03;;;2.40;;
26253;SDS011;53339;51.378;0.094;2022-07-23T08:00:28;7.53;;;2.40;;
26253;SDS011;53339;51.378;0.094;2022-07-23T08:02:56;5.78;;;2.35;;
26253;SDS011;53339;51.378;0.094;2022-07-23T08:05:27;5.57;;;1.80;;
26253;SDS011;53339;51.378;0.094;2022-07-23T08:07:56;5.00;;;1.58;;
26253;SDS011;53339;51.378;0.094;2022-07-23T08:10:25;5.50;;;2.45;;
26253;SDS011;53339;51.378;0.094;2022-07-23T08:12:54;5.85;;;2.00;;
26253;SDS011;53339;51.378;0.094;2022-07-23T08:15:26;4.03;;;1.55;;
26253;SDS011;53339;51.378;0.094;2022-07-23T08:17:55;5.40;;;2.40;;
26253;SDS011;53339;51.378;0.094;2022-07-23T08:20:23;4.63;;;1.98;;
26253;SDS011;53339;51.378;0.094;2022-07-23T08:25:23;3.67;;;1.95;;
26253;SDS011;53339;51.378;0.094;2022-07-23T08:27:51;6.35;;;2.45;;
26253;SDS011;53339;51.378;0.094;2022-07-23T08:30:20;5.80;;;1.90;;
26253;SDS011;53339;51.378;0.094;2022-07-23T08:32:58;5.03;;;2.13;;
26253;SDS011;53339;51.378;0.094;2022-07-23T08:35:28;5.57;;;2.17;;
26253;SDS011;53339;51.378;0.094;2022-07-23T08:37:58;5.68;;;2.90;;
26253;SDS011;53339;51.378;0.094;2022-07-23T08:42:55;6.97;;;1.95;;
26253;SDS011;53339;51.378;0.094;2022-07-23T08:45:23;5.10;;;1.90;;
26253;SDS011;53339;51.378;0.094;2022-07-23T08:47:56;4.40;;;1.65;;
26253;SDS011;53339;51.378;0.094;2022-07-23T08:50:28;7.13;;;1.77;;
26253;SDS011;53339;51.378;0.094;2022-07-23T08:52:56;3.95;;;1.50;;
26253;SDS011;53339;51.378;0.094;2022-07-23T08:55:26;4.65;;;1.90;;
26253;SDS011;53339;51.378;0.094;2022-07-23T08:57:53;6.50;;;2.35;;
26253;SDS011;53339;51.378;0.094;2022-07-23T09:00:21;4.63;;;1.73;;
26253;SDS011;53339;51.378;0.094;2022-07-23T09:02:49;5.05;;;1.70;;
26253;SDS011;53339;51.378;0.094;2022-07-23T09:05:18;4.65;;;2.17;;
26253;SDS011;53339;51.378;0.094;2022-07-23T09:13:30;4.30;;;1.58;;
26253;SDS011;53339;51.378;0.094;2022-07-23T09:18:30;6.05;;;2.25;;
26253;SDS011;53339;51.378;0.094;2022-07-23T09:21:08;3.40;;;1.75;;
26253;SDS011;53339;51.378;0.094;2022-07-23T09:23:40;5.43;;;2.03;;
26253;SDS011;53339;51.378;0.094;2022-07-23T09:26:21;3.92;;;1.40;;
26253;SDS011;53339;51.378;0.094;2022-07-23T09:29:09;3.90;;;1.40;;
26253;SDS011;53339;51.378;0.094;2022-07-23T09:34:21;4.93;;;1.55;;
26253;SDS011;53339;51.378;0.094;2022-07-23T09:36:51;4.32;;;1.38;;
26253;SDS011;53339;51.378;0.094;2022-07-23T09:39:33;2.63;;;1.20;;
26253;SDS011;53339;51.378;0.094;2022-07-23T09:42:16;5.57;;;1.30;;
26253;SDS011;53339;51.378;0.094;2022-07-23T09:44:46;4.43;;;1.67;;
26253;SDS011;53339;51.378;0.094;2022-07-23T09:47:15;4.35;;;1.25;;
26253;SDS011;53339;51.378;0.094;2022-07-23T09:52:36;4.43;;;1.08;;
26253;SDS011;53339;51.378;0.094;2022-07-23T09:55:17;4.85;;;1.52;;
26253;SDS011;53339;51.378;0.094;2022-07-23T09:57:45;3.22;;;1.40;;
26253;SDS011;53339;51.378;0.094;2022-07-23T10:00:17;5.82;;;1.85;;
26253;SDS011;53339;51.378;0.094;2022-07-23T10:02:46;4.28;;;1.30;;
26253;SDS011;53339;51.378;0.094;2022-07-23T10:05:40;4.32;;;1.20;;
26253;SDS011;53339;51.378;0.094;2022-07-23T10:08:29;3.63;;;1.17;;
26253;SDS011;53339;51.378;0.094;2022-07-23T10:11:34;3.67;;;1.73;;
26253;SDS011;53339;51.378;0.094;2022-07-23T10:14:12;3.50;;;1.25;;
26253;SDS011;53339;51.378;0.094;2022-07-23T10:16:53;2.70;;;1.08;;
26253;SDS011;53339;51.378;0.094;2022-07-23T10:19:21;2.42;;;1.10;;
26253;SDS011;53339;51.378;0.094;2022-07-23T10:21:51;3.53;;;1.10;;
26253;SDS011;53339;51.378;0.094;2022-07-23T10:30:29;3.83;;;1.52;;
26253;SDS011;53339;51.378;0.094;2022-07-23T10:33:27;4.03;;;1.92;;
26253;SDS011;53339;51.378;0.094;2022-07-23T10:49:43;2.83;;;1.67;;
26253;SDS011;53339;51.378;0.094;2022-07-23T10:52:15;3.70;;;1.23;;
26253;SDS011;53339;51.378;0.094;2022-07-23T10:54:46;2.47;;;0.95;;
26253;SDS011;53339;51.378;0.094;2022-07-23T10:57:15;3.33;;;1.00;;
26253;SDS011;53339;51.378;0.094;2022-07-23T11:02:34;2.50;;;1.05;;
26253;SDS011;53339;51.378;0.094;2022-07-23T11:07:35;2.63;;;1.00;;
26253;SDS011;53339;51.378;0.094;2022-07-23T11:10:04;5.53;;;1.52;;
26253;SDS011;53339;51.378;0.094;2022-07-23T11:12:32;4.28;;;1.58;;
26253;SDS011;53339;51.378;0.094;2022-07-23T11:15:08;3.90;;;1.15;;
26253;SDS011;53339;51.378;0.094;2022-07-23T11:20:13;4.80;;;1.20;;
26253;SDS011;53339;51.378;0.094;2022-07-23T11:25:11;3.60;;;0.90;;
26253;SDS011;53339;51.378;0.094;2022-07-23T11:27:49;2.50;;;1.08;;
26253;SDS011;53339;51.378;0.094;2022-07-23T11:33:15;3.78;;;1.20;;
26253;SDS011;53339;51.378;0.094;2022-07-23T11:35:49;3.22;;;1.40;;
26253;SDS011;53339;51.378;0.094;2022-07-23T11:38:27;3.58;;;1.10;;
26253;SDS011;53339;51.378;0.094;2022-07-23T11:40:57;3.88;;;2.03;;
26253;SDS011;53339;51.378;0.094;2022-07-23T11:43:25;3.35;;;1.67;;
26253;SDS011;53339;51.378;0.094;2022-07-23T11:45:54;3.70;;;1.15;;
26253;SDS011;53339;51.378;0.094;2022-07-23T11:48:26;4.20;;;1.00;;
26253;SDS011;53339;51.378;0.094;2022-07-23T11:50:56;2.53;;;1.20;;
26253;SDS011;53339;51.378;0.094;2022-07-23T11:53:31;2.17;;;1.10;;
26253;SDS011;53339;51.378;0.094;2022-07-23T11:56:07;3.55;;;1.40;;
26253;SDS011;53339;51.378;0.094;2022-07-23T11:58:37;2.28;;;0.90;;
26253;SDS011;53339;51.378;0.094;2022-07-23T12:01:06;3.63;;;1.13;;
26253;SDS011;53339;51.378;0.094;2022-07-23T12:03:49;1.52;;;0.80;;
26253;SDS011;53339;51.378;0.094;2022-07-23T12:06:17;3.08;;;1.33;;
26253;SDS011;53339;51.378;0.094;2022-07-23T12:08:45;2.17;;;1.02;;
26253;SDS011;53339;51.378;0.094;2022-07-23T12:11:13;2.42;;;0.93;;
26253;SDS011;53339;51.378;0.094;2022-07-23T12:13:40;3.65;;;1.33;;
26253;SDS011;53339;51.378;0.094;2022-07-23T12:16:08;2.45;;;0.90;;
26253;SDS011;53339;51.378;0.094;2022-07-23T12:18:36;3.47;;;1.42;;
26253;SDS011;53339;51.378;0.094;2022-07-23T12:21:03;6.20;;;1.30;;
26253;SDS011;53339;51.378;0.094;2022-07-23T12:23:33;3.03;;;1.10;;
26253;SDS011;53339;51.378;0.094;2022-07-23T12:26:02;2.78;;;1.20;;
26253;SDS011;53339;51.378;0.094;2022-07-23T12:28:31;3.33;;;1.15;;
26253;SDS011;53339;51.378;0.094;2022-07-23T12:31:00;4.95;;;1.42;;
26253;SDS011;53339;51.378;0.094;2022-07-23T12:36:06;3.47;;;1.10;;
26253;SDS011;53339;51.378;0.094;2022-07-23T12:38:39;3.50;;;0.90;;
26253;SDS011;53339;51.378;0.094;2022-07-23T12:41:08;2.75;;;1.00;;
26253;SDS011;53339;51.378;0.094;2022-07-23T12:43:37;3.75;;;1.10;;
26253;SDS011;53339;51.378;0.094;2022-07-23T12:46:07;2.10;;;0.80;;
26253;SDS011;53339;51.378;0.094;2022-07-23T12:48:50;4.30;;;1.42;;
26253;SDS011;53339;51.378;0.094;2022-07-23T12:53:57;2.83;;;1.02;;
26253;SDS011;53339;51.378;0.094;2022-07-23T12:56:30;5.25;;;1.00;;
26253;SDS011;53339;51.378;0.094;2022-07-23T13:01:32;3.25;;;0.80;;
26253;SDS011;53339;51.378;0.094;2022-07-23T13:04:11;4.30;;;0.90;;
26253;SDS011;53339;51.378;0.094;2022-07-23T13:06:44;3.17;;;0.93;;
26253;SDS011;53339;51.378;0.094;2022-07-23T13:09:26;4.85;;;1.45;;
26253;SDS011;53339;51.378;0.094;2022-07-23T13:11:59;2.65;;;0.82;;
26253;SDS011;53339;51.378;0.094;2022-07-23T13:14:27;3.45;;;0.90;;
26253;SDS011;53339;51.378;0.094;2022-07-23T13:16:55;4.00;;;1.00;;
26253;SDS011;53339;51.378;0.094;2022-07-23T13:19:25;2.00;;;0.75;;
26253;SDS011;53339;51.378;0.094;2022-07-23T13:21:54;3.72;;;0.90;;
26253;SDS011;53339;51.378;0.094;2022-07-23T13:24:21;3.60;;;0.82;;
26253;SDS011;53339;51.378;0.094;2022-07-23T13:26:49;2.53;;;0.80;;
26253;SDS011;53339;51.378;0.094;2022-07-23T13:29:18;3.40;;;1.10;;
26253;SDS011;53339;51.378;0.094;2022-07-23T13:34:15;3.95;;;1.13;;
26253;SDS011;53339;51.378;0.094;2022-07-23T13:36:42;2.30;;;1.00;;
26253;SDS011;53339;51.378;0.094;2022-07-23T13:39:10;2.75;;;1.05;;
26253;SDS011;53339;51.378;0.094;2022-07-23T13:41:38;3.75;;;1.00;;
26253;SDS011;53339;51.378;0.094;2022-07-23T13:44:06;3.70;;;0.73;;
26253;SDS011;53339;51.378;0.094;2022-07-23T13:46:34;3.05;;;1.05;;
26253;SDS011;53339;51.378;0.094;2022-07-23T13:51:30;4.50;;;0.95;;
26253;SDS011;53339;51.378;0.094;2022-07-23T13:53:58;1.70;;;0.77;;
26253;SDS011;53339;51.378;0.094;2022-07-23T13:56:26;2.22;;;1.02;;
26253;SDS011;53339;51.378;0.094;2022-07-23T13:58:54;3.17;;;1.10;;
26253;SDS011;53339;51.378;0.094;2022-07-23T14:01:21;2.42;;;1.13;;
26253;SDS011;53339;51.378;0.094;2022-07-23T14:03:49;1.80;;;0.70;;
26253;SDS011;53339;51.378;0.094;2022-07-23T14:06:17;2.60;;;0.80;;
26253;SDS011;53339;51.378;0.094;2022-07-23T14:08:45;3.20;;;0.80;;
26253;SDS011;53339;51.378;0.094;2022-07-23T14:11:14;3.20;;;1.10;;
26253;SDS011;53339;51.378;0.094;2022-07-23T14:13:41;5.85;;;1.67;;
26253;SDS011;53339;51.378;0.094;2022-07-23T14:16:09;3.22;;;1.10;;
26253;SDS011;53339;51.378;0.094;2022-07-23T14:18:36;4.82;;;1.05;;
26253;SDS011;53339;51.378;0.094;2022-07-23T14:21:04;4.40;;;0.85;;
26253;SDS011;53339;51.378;0.094;2022-07-23T14:23:32;2.47;;;0.90;;
26253;SDS011;53339;51.378;0.094;2022-07-23T14:26:00;3.83;;;0.90;;
26253;SDS011;53339;51.378;0.094;2022-07-23T14:28:28;4.18;;;0.77;;
26253;SDS011;53339;51.378;0.094;2022-07-23T14:30:55;2.85;;;1.02;;
26253;SDS011;53339;51.378;0.094;2022-07-23T14:33:23;2.13;;;0.90;;
26253;SDS011;53339;51.378;0.094;2022-07-23T14:35:52;3.88;;;1.23;;
26253;SDS011;53339;51.378;0.094;2022-07-23T14:38:20;3.67;;;0.80;;
26253;SDS011;53339;51.378;0.094;2022-07-23T14:40:47;2.90;;;0.93;;
26253;SDS011;53339;51.378;0.094;2022-07-23T14:43:15;3.50;;;1.00;;
26253;SDS011;53339;51.378;0.094;2022-07-23T14:45:42;5.28;;;0.90;;
26253;SDS011;53339;51.378;0.094;2022-07-23T14:48:11;2.88;;;1.00;;
26253;SDS011;53339;51.378;0.094;2022-07-23T14:50:39;2.83;;;0.98;;
26253;SDS011;53339;51.378;0.094;2022-07-23T14:53:07;2.35;;;0.80;;
26253;SDS011;53339;51.378;0.094;2022-07-23T14:55:35;2.78;;;1.30;;
26253;SDS011;53339;51.378;0.094;2022-07-23T14:58:03;2.47;;;0.90;;
26253;SDS011;53339;51.378;0.094;2022-07-23T15:00:30;3.00;;;1.20;;
26253;SDS011;53339;51.378;0.094;2022-07-23T15:02:58;3.15;;;1.00;;
26253;SDS011;53339;51.378;0.094;2022-07-23T15:05:26;3.83;;;0.95;;
26253;SDS011;53339;51.378;0.094;2022-07-23T15:07:55;2.67;;;0.88;;
26253;SDS011;53339;51.378;0.094;2022-07-23T15:10:23;5.40;;;1.10;;
26253;SDS011;53339;51.378;0.094;2022-07-23T15:12:50;3.45;;;1.10;;
26253;SDS011;53339;51.378;0.094;2022-07-23T15:15:18;3.15;;;0.90;;
26253;SDS011;53339;51.378;0.094;2022-07-23T15:17:46;2.25;;;0.88;;
26253;SDS011;53339;51.378;0.094;2022-07-23T15:20:13;6.32;;;1.27;;
26253;SDS011;53339;51.378;0.094;2022-07-23T15:22:44;2.22;;;1.10;;
26253;SDS011;53339;51.378;0.094;2022-07-23T15:25:14;3.67;;;0.90;;
26253;SDS011;53339;51.378;0.094;2022-07-23T15:27:42;4.15;;;1.20;;
26253;SDS011;53339;51.378;0.094;2022-07-23T15:30:10;2.53;;;0.82;;
26253;SDS011;53339;51.378;0.094;2022-07-23T15:32:37;4.03;;;1.40;;
26253;SDS011;53339;51.378;0.094;2022-07-23T15:35:05;2.20;;;1.08;;
26253;SDS011;53339;51.378;0.094;2022-07-23T15:37:35;4.32;;;1.08;;
26253;SDS011;53339;51.378;0.094;2022-07-23T15:40:02;3.67;;;1.40;;
26253;SDS011;53339;51.378;0.094;2022-07-23T15:42:33;4.15;;;1.20;;
26253;SDS011;53339;51.378;0.094;2022-07-23T15:45:00;3.42;;;1.00;;
26253;SDS011;53339;51.378;0.094;2022-07-23T15:47:29;2.78;;;1.35;;
26253;SDS011;53339;51.378;0.094;2022-07-23T15:49:56;2.63;;;1.10;;
26253;SDS011;53339;51.378;0.094;2022-07-23T15:52:24;2.60;;;1.00;;
26253;SDS011;53339;51.378;0.094;2022-07-23T15:54:51;2.10;;;0.90;;
26253;SDS011;53339;51.378;0.094;2022-07-23T15:57:19;2.47;;;0.98;;
26253;SDS011;53339;51.378;0.094;2022-07-23T15:59:47;4.20;;;1.10;;
26253;SDS011;53339;51.378;0.094;2022-07-23T16:02:15;3.08;;;1.02;;
26253;SDS011;53339;51.378;0.094;2022-07-23T16:04:43;2.60;;;1.15;;
26253;SDS011;53339;51.378;0.094;2022-07-23T16:07:11;3.67;;;1.10;;
26253;SDS011;53339;51.378;0.094;2022-07-23T16:09:41;3.95;;;1.17;;
26253;SDS011;53339;51.378;0.094;2022-07-23T16:12:09;4.25;;;1.10;;
26253;SDS011;53339;51.378;0.094;2022-07-23T16:14:37;3.13;;;0.90;;
26253;SDS011;53339;51.378;0.094;2022-07-23T16:17:05;3.53;;;1.05;;